Pagrindinis puslapis
METAR-TAF:

METAR-TAF

Oro uostai :

Kamišlis, Sirija

platuma: 37-03N, ilguma: 041-13E, Aukštis: 455 m

Dabartinis oras

Ataskaita buvo paskelbta 2 valandos ir 42 minutes, ne 12:00 UTC
Vėjas 8 kt iš Vakarų/Šiaurės Vakarų
Temperatūra 38°C
Drėgmė 9%
Slėgis 1011 hPa
Matomumas 10 km arba daugiau
nėra debesų žemiau 1500 m ir nėra kamuolinių lietaus debesų

METAR: OSKL 281200Z 29008KT CAVOK 38/00 Q1011

Laikas: 17:42 (14:42 UTC)


TAF: trūkstamas

Orai ataskaitas ir orų prognozės (METAR, TAF).

turimą stotys yra geltonos ir raudonos taškus žemėlapyje.

Perkelti pele per norėdami pamatyti stoties vardą.

Tada spustelėkite, norėdami matyti oro stebėjimo ir prognozės.

Norėdami pakeisti žemėlapį: spustelėkite ant žalios mygtukų su juodo kryžiaus žemyn,; žalią mygtuką su brūkšneliu, jei norite nutolinti; arba žalių rodyklių gretimoms žemėlapius.


METAR-TAF: